createdAt,value
2018-09-12T00:00:17.081Z,58.04
2018-09-12T00:01:17.067Z,57.85
2018-09-12T00:02:17.057Z,58.81
2018-09-12T00:03:17.059Z,59.00
2018-09-12T00:04:17.047Z,59.00
2018-09-12T00:05:17.037Z,59.09
2018-09-12T00:06:17.028Z,58.71
2018-09-12T00:07:17.018Z,56.98
2018-09-12T00:08:17.013Z,56.98
2018-09-12T00:09:17.007Z,56.98
2018-09-12T00:10:16.996Z,58.01
2018-09-12T00:11:16.982Z,57.82
2018-09-12T00:12:16.978Z,58.20
2018-09-12T00:13:16.962Z,58.49
2018-09-12T00:14:16.963Z,59.26
2018-09-12T00:15:16.953Z,58.78
2018-09-12T00:16:16.945Z,58.49
2018-09-12T00:17:16.941Z,58.69
2018-09-12T00:18:16.925Z,58.87
2018-09-12T00:19:16.919Z,58.78
2018-09-12T00:20:16.912Z,58.59
2018-09-12T00:21:16.966Z,59.45
2018-09-12T00:22:16.890Z,59.26
2018-09-12T00:23:16.878Z,59.36
2018-09-12T00:24:16.873Z,59.45
2018-09-12T00:25:16.864Z,58.59
2018-09-12T00:26:16.856Z,58.20
2018-09-12T00:27:16.851Z,57.43
2018-09-12T00:28:16.839Z,57.53
2018-09-12T00:29:16.832Z,57.24
2018-09-12T00:30:16.816Z,56.96
2018-09-12T00:31:16.812Z,57.06
2018-09-12T00:32:16.803Z,56.67
2018-09-12T00:33:16.792Z,56.67
2018-09-12T00:34:16.784Z,56.29
2018-09-12T00:35:16.771Z,55.80
2018-09-12T00:36:16.767Z,56.12
2018-09-12T00:37:16.758Z,56.70
2018-09-12T00:38:16.751Z,56.51
2018-09-12T00:39:16.742Z,56.89
2018-09-12T00:40:16.732Z,56.98
2018-09-12T00:41:16.721Z,56.89
2018-09-12T00:42:16.714Z,56.70
2018-09-12T00:43:16.710Z,56.60
2018-09-12T00:44:16.697Z,56.12
2018-09-12T00:45:16.699Z,55.07
2018-09-12T00:46:16.676Z,55.26
2018-09-12T00:47:16.677Z,54.97
2018-09-12T00:48:16.667Z,54.58
2018-09-12T00:49:16.654Z,55.16
2018-09-12T00:50:16.645Z,54.97
2018-09-12T00:51:16.635Z,55.07
2018-09-12T00:52:16.629Z,54.97
2018-09-12T00:53:16.618Z,55.74
2018-09-12T00:54:16.616Z,54.58
2018-09-12T00:55:16.596Z,54.78
2018-09-12T00:56:16.591Z,54.78
2018-09-12T00:57:16.581Z,54.68
2018-09-12T00:58:16.579Z,55.74
2018-09-12T00:59:16.565Z,55.93
2018-09-12T01:00:16.555Z,55.74
2018-09-12T01:01:16.554Z,55.45
2018-09-12T01:02:16.544Z,55.93
2018-09-12T01:03:16.532Z,56.22
2018-09-12T01:04:16.519Z,55.26
2018-09-12T01:05:16.511Z,55.64
2018-09-12T01:06:16.502Z,56.02
2018-09-12T01:07:16.498Z,55.93
2018-09-12T01:08:16.489Z,55.26
2018-09-12T01:09:16.477Z,56.79
2018-09-12T01:10:16.476Z,57.08
2018-09-12T01:11:16.455Z,57.18
2018-09-12T01:12:16.447Z,57.37
2018-09-12T01:13:16.446Z,56.79
2018-09-12T01:14:16.434Z,56.79
2018-09-12T01:15:16.422Z,57.85
2018-09-12T01:16:16.422Z,57.46
2018-09-12T01:17:16.405Z,57.56
2018-09-12T01:18:16.406Z,57.08
2018-09-12T01:19:16.387Z,57.63
2018-09-12T01:20:16.381Z,57.24
2018-09-12T01:21:16.370Z,57.72
2018-09-12T01:22:16.363Z,58.11
2018-09-12T01:23:16.356Z,58.11
2018-09-12T01:24:16.343Z,58.39
2018-09-12T01:25:16.333Z,58.69
2018-09-12T01:26:16.324Z,57.92
2018-09-12T01:27:16.322Z,55.71
2018-09-12T01:28:16.311Z,55.80
2018-09-12T01:29:16.304Z,55.42
2018-09-12T01:30:16.293Z,56.00
2018-09-12T01:31:16.283Z,56.86
2018-09-12T01:32:16.278Z,57.63
2018-09-12T01:33:16.274Z,57.92
2018-09-12T01:34:16.259Z,57.63
2018-09-12T01:35:16.250Z,57.92
2018-09-12T01:36:16.237Z,57.82
2018-09-12T01:37:16.231Z,57.43
2018-09-12T01:38:16.222Z,57.24
2018-09-12T01:39:16.215Z,56.76
2018-09-12T01:40:16.202Z,56.00
2018-09-12T01:41:16.193Z,56.38
2018-09-12T01:42:16.182Z,56.86
2018-09-12T01:43:16.178Z,56.76
2018-09-12T01:44:16.168Z,56.96
2018-09-12T01:45:16.168Z,57.06
2018-09-12T01:46:16.158Z,57.12
2018-09-12T01:47:16.137Z,57.12
2018-09-12T01:48:16.135Z,57.03
2018-09-12T01:49:16.151Z,57.50
2018-09-12T01:50:16.114Z,57.50
2018-09-12T01:51:16.106Z,57.31
2018-09-12T01:52:16.099Z,56.26
2018-09-12T01:53:16.095Z,56.07
2018-09-12T01:54:16.078Z,55.87
2018-09-12T01:55:16.067Z,56.35
2018-09-12T01:56:16.068Z,56.93
2018-09-12T01:57:16.052Z,56.93
2018-09-12T01:58:16.043Z,57.06
2018-09-12T01:59:16.034Z,57.82
2018-09-12T02:00:16.024Z,57.12
2018-09-12T02:01:16.017Z,57.50
2018-09-12T02:02:16.003Z,57.98
2018-09-12T02:03:15.995Z,57.41
2018-09-12T02:04:15.991Z,57.03
2018-09-12T02:05:15.983Z,57.03
2018-09-12T02:06:15.976Z,57.43
2018-09-12T02:07:15.961Z,57.31
2018-09-12T02:08:15.953Z,56.83
2018-09-12T02:09:15.943Z,56.74
2018-09-12T02:10:15.936Z,57.12
2018-09-12T02:11:15.928Z,56.83
2018-09-12T02:12:15.918Z,57.03
2018-09-12T02:13:15.908Z,57.60
2018-09-12T02:14:15.895Z,57.50
2018-09-12T02:15:15.890Z,56.45
2018-09-12T02:16:15.884Z,57.12
2018-09-12T02:17:15.870Z,57.31
2018-09-12T02:18:15.863Z,57.79
2018-09-12T02:19:15.854Z,57.79
2018-09-12T02:20:15.841Z,57.21
2018-09-12T02:21:15.835Z,57.21
2018-09-12T02:22:15.830Z,56.83
2018-09-12T02:23:15.815Z,56.83
2018-09-12T02:24:15.807Z,56.83
2018-09-12T02:25:15.801Z,57.31
2018-09-12T02:26:15.789Z,57.41
2018-09-12T02:27:15.779Z,57.60
2018-09-12T02:28:15.771Z,58.65
2018-09-12T02:29:15.765Z,58.56
2018-09-12T02:30:15.751Z,58.84
2018-09-12T02:31:15.745Z,58.94
2018-09-12T02:32:15.738Z,58.65
2018-09-12T02:33:15.725Z,58.75
2018-09-12T02:34:15.719Z,59.04
2018-09-12T02:35:15.705Z,59.52
2018-09-12T02:36:15.701Z,59.33
2018-09-12T02:37:15.693Z,59.42
2018-09-12T02:38:15.680Z,58.84
2018-09-12T02:39:15.679Z,57.98
2018-09-12T02:40:15.667Z,57.89
2018-09-12T02:41:15.651Z,57.31
2018-09-12T02:42:15.644Z,57.50
2018-09-12T02:43:15.642Z,55.87
2018-09-12T02:44:15.631Z,54.63
2018-09-12T02:45:15.615Z,55.01
2018-09-12T02:46:15.605Z,55.58
2018-09-12T02:47:15.597Z,56.26
2018-09-12T02:48:15.590Z,56.64
2018-09-12T02:49:15.577Z,55.97
2018-09-12T02:50:15.573Z,55.01
2018-09-12T02:51:15.557Z,55.58
2018-09-12T02:52:15.553Z,55.01
2018-09-12T02:53:15.543Z,55.40
2018-09-12T02:54:15.532Z,55.78
2018-09-12T02:55:15.527Z,55.87
2018-09-12T02:56:15.516Z,55.58
2018-09-12T02:57:15.514Z,55.97
2018-09-12T02:58:15.499Z,57.31
2018-09-12T02:59:15.486Z,57.41
2018-09-12T03:00:15.475Z,56.99
2018-09-12T03:01:15.467Z,56.99
2018-09-12T03:02:15.460Z,56.83
2018-09-12T03:03:15.449Z,56.83
2018-09-12T03:04:15.442Z,56.93
2018-09-12T03:05:15.430Z,57.41
2018-09-12T03:06:15.423Z,57.79
2018-09-12T03:07:15.414Z,57.70
2018-09-12T03:08:15.403Z,57.60
2018-09-12T03:09:15.399Z,57.89
2018-09-12T03:10:15.392Z,57.89
2018-09-12T03:11:15.377Z,57.38
2018-09-12T03:12:15.368Z,57.28
2018-09-12T03:13:15.358Z,56.71
2018-09-12T03:14:15.348Z,57.48
2018-09-12T03:15:15.341Z,57.95
2018-09-12T03:16:15.336Z,57.95
2018-09-12T03:17:15.333Z,57.86
2018-09-12T03:18:15.311Z,56.52
2018-09-12T03:19:15.303Z,55.08
2018-09-12T03:20:15.291Z,54.99
2018-09-12T03:21:15.290Z,55.27
2018-09-12T03:22:15.278Z,55.75
2018-09-12T03:23:15.268Z,56.81
2018-09-12T03:24:15.254Z,56.52
2018-09-12T03:25:15.244Z,56.61
2018-09-12T03:26:15.237Z,56.32
2018-09-12T03:27:15.232Z,56.32
2018-09-12T03:28:15.226Z,56.90
2018-09-12T03:29:15.211Z,56.32
2018-09-12T03:30:15.198Z,55.94
2018-09-12T03:31:15.190Z,55.75
2018-09-12T03:32:15.183Z,56.13
2018-09-12T03:33:15.248Z,56.04
2018-09-12T03:34:15.167Z,56.99
2018-09-12T03:35:15.157Z,57.09
2018-09-12T03:36:15.147Z,57.38
2018-09-12T03:37:15.137Z,57.95
2018-09-12T03:38:15.127Z,58.53
2018-09-12T03:39:15.123Z,58.62
2018-09-12T03:40:15.107Z,56.81
2018-09-12T03:41:15.105Z,56.81
2018-09-12T03:42:15.093Z,56.32
2018-09-12T03:43:15.082Z,56.04
2018-09-12T03:44:15.074Z,55.75
2018-09-12T03:45:15.068Z,55.94
2018-09-12T03:46:15.050Z,55.46
2018-09-12T03:47:15.044Z,55.56
2018-09-12T03:48:15.040Z,55.75
2018-09-12T03:49:15.031Z,55.94
2018-09-12T03:50:15.039Z,55.94
2018-09-12T03:51:15.007Z,56.04
2018-09-12T03:52:14.993Z,56.13
2018-09-12T03:53:14.989Z,55.65
2018-09-12T03:54:14.986Z,55.65
2018-09-12T03:55:14.969Z,55.85
2018-09-12T03:56:14.962Z,56.61
2018-09-12T03:57:14.953Z,57.09
2018-09-12T03:58:14.940Z,57.95
2018-09-12T03:59:14.930Z,58.05
2018-09-12T04:00:14.925Z,58.34
2018-09-12T04:01:14.912Z,57.95
2018-09-12T04:02:14.904Z,57.76
2018-09-12T04:03:14.895Z,57.38
2018-09-12T04:04:14.886Z,57.48
2018-09-12T04:05:14.874Z,56.81
2018-09-12T04:06:14.864Z,55.46
2018-09-12T04:07:14.857Z,55.65
2018-09-12T04:08:14.848Z,55.36
2018-09-12T04:09:14.840Z,56.52
2018-09-12T04:10:14.832Z,57.57
2018-09-12T04:11:14.822Z,57.95
2018-09-12T04:12:14.813Z,57.86
2018-09-12T04:13:14.803Z,57.86
2018-09-12T04:14:14.801Z,56.71
2018-09-12T04:15:14.782Z,56.99
2018-09-12T04:16:14.770Z,57.28
2018-09-12T04:17:14.765Z,57.67
2018-09-12T04:18:14.754Z,57.86
2018-09-12T04:19:14.745Z,58.34
2018-09-12T04:20:14.730Z,58.53
2018-09-12T04:21:14.723Z,58.53
2018-09-12T04:22:14.715Z,58.44
2018-09-12T04:23:14.710Z,58.53
2018-09-12T04:24:14.751Z,58.24
2018-09-12T04:25:14.687Z,58.91
2018-09-12T04:26:14.675Z,59.01
2018-09-12T04:27:14.670Z,58.69
2018-09-12T04:28:14.659Z,58.69
2018-09-12T04:29:14.649Z,58.98
2018-09-12T04:30:14.642Z,58.31
2018-09-12T04:31:14.631Z,58.02
2018-09-12T04:32:14.623Z,58.50
2018-09-12T04:33:14.616Z,58.31
2018-09-12T04:34:14.601Z,58.98
2018-09-12T04:35:14.595Z,58.69
2018-09-12T04:36:14.584Z,57.92
2018-09-12T04:37:14.581Z,57.92
2018-09-12T04:38:14.567Z,57.67
2018-09-12T04:39:14.557Z,58.02
2018-09-12T04:40:14.547Z,57.45
2018-09-12T04:41:14.538Z,57.86
2018-09-12T04:42:14.538Z,57.83
2018-09-12T04:43:14.521Z,57.45
2018-09-12T04:44:14.511Z,56.97
2018-09-12T04:45:14.503Z,58.02
2018-09-12T04:46:14.517Z,58.22
2018-09-12T04:47:14.480Z,58.69
2018-09-12T04:48:14.464Z,58.59
2018-09-12T04:49:14.461Z,59.27
2018-09-12T04:50:14.449Z,59.45
2018-09-12T04:51:14.444Z,58.72
2018-09-12T04:52:14.438Z,59.36
2018-09-12T04:53:14.424Z,57.35
2018-09-12T04:54:14.423Z,57.26
2018-09-12T04:55:14.407Z,57.16
2018-09-12T04:56:14.395Z,58.02
2018-09-12T04:57:14.392Z,58.79
2018-09-12T04:58:14.374Z,59.45
2018-09-12T04:59:14.369Z,59.36
2018-09-12T05:00:14.363Z,59.94
2018-09-12T05:01:14.344Z,59.17
2018-09-12T05:02:14.339Z,59.36
2018-09-12T05:03:14.327Z,59.36
2018-09-12T05:04:14.323Z,59.36
2018-09-12T05:05:14.311Z,58.81
2018-09-12T05:06:14.302Z,58.59
2018-09-12T05:07:14.292Z,59.36
2018-09-12T05:08:14.279Z,59.17
2018-09-12T05:09:14.273Z,58.79
2018-09-12T05:10:14.273Z,58.79
2018-09-12T05:11:14.251Z,59.36
2018-09-12T05:12:14.242Z,58.59
2018-09-12T05:13:14.236Z,57.92
2018-09-12T05:14:14.232Z,57.45
2018-09-12T05:15:14.216Z,57.45
2018-09-12T05:16:14.202Z,58.12
2018-09-12T05:17:14.195Z,57.92
2018-09-12T05:18:14.189Z,58.50
2018-09-12T05:19:14.178Z,59.45
2018-09-12T05:20:14.164Z,59.84
2018-09-12T05:21:14.158Z,60.03
2018-09-12T05:22:14.152Z,59.27
2018-09-12T05:23:14.136Z,60.03
2018-09-12T05:24:14.130Z,59.65
2018-09-12T05:25:14.118Z,59.36
2018-09-12T05:26:14.106Z,59.45
2018-09-12T05:27:14.103Z,58.79
2018-09-12T05:28:14.089Z,58.50
2018-09-12T05:29:14.077Z,58.98
2018-09-12T05:30:14.068Z,59.17
2018-09-12T05:31:14.064Z,59.36
2018-09-12T05:32:14.049Z,60.13
2018-09-12T05:33:14.044Z,60.13
2018-09-12T05:34:14.037Z,60.41
2018-09-12T05:35:14.038Z,60.80
2018-09-12T05:36:14.031Z,60.86
2018-09-12T05:37:14.005Z,60.67
2018-09-12T05:38:13.999Z,60.61
2018-09-12T05:39:13.986Z,60.13
2018-09-12T05:40:13.974Z,59.36
2018-09-12T05:41:13.967Z,59.14
2018-09-12T05:42:13.955Z,59.45
2018-09-12T05:43:13.943Z,59.94
2018-09-12T05:44:13.938Z,60.32
2018-09-12T05:45:13.928Z,60.70
2018-09-12T05:46:13.919Z,60.70
2018-09-12T05:47:13.909Z,61.08
2018-09-12T05:48:13.900Z,60.32
2018-09-12T05:49:13.890Z,60.41
2018-09-12T05:50:13.923Z,60.41
2018-09-12T05:51:13.863Z,60.61
2018-09-12T05:52:13.860Z,60.61
2018-09-12T05:53:13.855Z,59.08
2018-09-12T05:54:13.845Z,59.17
2018-09-12T05:55:13.831Z,58.98
2018-09-12T05:56:13.815Z,59.36
2018-09-12T05:57:13.816Z,60.03
2018-09-12T05:58:13.801Z,60.32
2018-09-12T05:59:13.797Z,60.70
2018-09-12T06:00:13.783Z,60.80
2018-09-12T06:01:13.777Z,61.28
2018-09-12T06:02:13.760Z,60.61
2018-09-12T06:03:13.752Z,60.32
2018-09-12T06:04:13.743Z,60.70
2018-09-12T06:05:13.738Z,60.61
2018-09-12T06:06:13.723Z,60.89
2018-09-12T06:07:13.883Z,61.18
2018-09-12T06:08:13.703Z,61.57
2018-09-12T06:09:13.694Z,61.60
2018-09-12T06:10:13.678Z,61.37
2018-09-12T06:11:13.678Z,61.28
2018-09-12T06:12:13.665Z,61.47
2018-09-12T06:13:13.656Z,61.18
2018-09-12T06:14:13.691Z,61.31
2018-09-12T06:15:13.641Z,61.37
2018-09-12T06:16:13.635Z,60.99
2018-09-12T06:17:13.621Z,61.47
2018-09-12T06:18:13.612Z,59.27
2018-09-12T06:19:13.600Z,58.69
2018-09-12T06:20:13.591Z,59.17
2018-09-12T06:21:13.580Z,60.41
2018-09-12T06:22:13.569Z,61.18
2018-09-12T06:23:13.564Z,61.21
2018-09-12T06:24:13.555Z,61.28
2018-09-12T06:25:13.543Z,61.18
2018-09-12T06:26:13.534Z,61.50
2018-09-12T06:27:13.523Z,61.57
2018-09-12T06:28:13.516Z,61.98
2018-09-12T06:29:13.505Z,61.88
2018-09-12T06:30:13.488Z,59.68
2018-09-12T06:31:13.481Z,59.39
2018-09-12T06:32:13.476Z,59.20
2018-09-12T06:33:13.472Z,59.77
2018-09-12T06:34:13.456Z,60.54
2018-09-12T06:35:13.446Z,60.93
2018-09-12T06:36:13.441Z,59.97
2018-09-12T06:37:13.427Z,58.24
2018-09-12T06:38:13.466Z,58.53
2018-09-12T06:39:13.419Z,59.39
2018-09-12T06:40:13.398Z,59.77
2018-09-12T06:41:13.386Z,60.44
2018-09-12T06:42:13.382Z,60.35
2018-09-12T06:43:13.379Z,61.40
2018-09-12T06:44:13.356Z,60.93
2018-09-12T06:45:13.360Z,60.54
2018-09-12T06:46:13.340Z,60.44
2018-09-12T06:47:13.329Z,60.09
2018-09-12T06:48:13.325Z,60.09
2018-09-12T06:49:13.314Z,60.19
2018-09-12T06:50:13.306Z,59.90
2018-09-12T06:51:13.296Z,60.22
2018-09-12T06:52:13.282Z,59.45
2018-09-12T06:53:13.276Z,59.36
2018-09-12T06:54:13.260Z,58.39
2018-09-12T06:55:13.256Z,58.49
2018-09-12T06:56:13.253Z,57.65
2018-09-12T06:57:13.237Z,58.14
2018-09-12T06:58:13.229Z,58.04
2018-09-12T06:59:13.219Z,58.33
2018-09-12T07:00:13.214Z,59.58
2018-09-12T07:01:13.200Z,59.61
2018-09-12T07:02:13.190Z,59.41
2018-09-12T07:03:13.184Z,58.45
2018-09-12T07:04:13.176Z,57.78
2018-09-12T07:05:13.171Z,57.97
2018-09-12T07:06:13.154Z,57.11
2018-09-12T07:07:13.144Z,57.50
2018-09-12T07:08:13.136Z,56.85
2018-09-12T07:09:13.132Z,55.89
2018-09-12T07:10:13.119Z,55.89
2018-09-12T07:11:13.109Z,56.18
2018-09-12T07:12:13.101Z,55.91
2018-09-12T07:13:13.094Z,56.30
2018-09-12T07:14:13.123Z,56.11
2018-09-12T07:15:13.075Z,55.82
2018-09-12T07:16:13.077Z,55.82
2018-09-12T07:17:13.063Z,56.30
2018-09-12T07:18:13.056Z,56.04
2018-09-12T07:19:13.042Z,56.14
2018-09-12T07:20:13.030Z,56.43
2018-09-12T07:21:13.024Z,56.91
2018-09-12T07:22:13.015Z,55.85
2018-09-12T07:23:13.009Z,55.56
2018-09-12T07:24:13.002Z,55.98
2018-09-12T07:25:12.993Z,56.26
2018-09-12T07:26:12.982Z,55.88
2018-09-12T07:27:12.972Z,55.88
2018-09-12T07:28:12.964Z,55.40
2018-09-12T07:29:12.958Z,55.98
2018-09-12T07:30:12.948Z,55.40
2018-09-12T07:31:12.936Z,54.94
2018-09-12T07:32:12.932Z,54.85
2018-09-12T07:33:12.926Z,55.04
2018-09-12T07:34:12.909Z,54.75
2018-09-12T07:35:12.911Z,54.36
2018-09-12T07:36:12.899Z,54.36
2018-09-12T07:37:12.893Z,53.98
2018-09-12T07:38:12.883Z,54.46
2018-09-12T07:39:12.875Z,55.35
2018-09-12T07:40:12.870Z,55.35
2018-09-12T07:41:12.864Z,54.87
2018-09-12T07:42:12.856Z,54.00
2018-09-12T07:43:12.846Z,54.30
2018-09-12T07:44:12.838Z,54.39
2018-09-12T07:45:12.830Z,55.16
2018-09-12T07:46:12.826Z,53.91
2018-09-12T07:47:12.816Z,53.36
2018-09-12T07:48:12.809Z,52.69
2018-09-12T07:49:12.815Z,52.97
2018-09-12T07:50:12.788Z,52.59
2018-09-12T07:51:12.780Z,52.97
2018-09-12T07:52:12.776Z,54.13
2018-09-12T07:53:12.771Z,54.90
2018-09-12T07:54:12.760Z,54.44
2018-09-12T07:55:12.789Z,54.44
2018-09-12T07:56:12.850Z,54.44
2018-09-12T07:57:12.736Z,54.44
2018-09-12T07:58:12.735Z,53.58
2018-09-12T07:59:12.727Z,53.96
2018-09-12T08:00:12.840Z,53.70
2018-09-12T08:01:12.714Z,53.51
2018-09-12T08:02:12.705Z,53.31
2018-09-12T08:03:12.700Z,53.22
2018-09-12T08:04:12.689Z,54.96
2018-09-12T08:05:12.707Z,54.86
2018-09-12T08:06:12.674Z,54.57
2018-09-12T08:07:12.667Z,55.24
2018-09-12T08:08:12.662Z,55.36
2018-09-12T08:09:12.652Z,54.40
2018-09-12T08:10:12.650Z,53.92
2018-09-12T08:11:12.640Z,54.40
2018-09-12T08:12:12.647Z,53.47
2018-09-12T08:13:12.624Z,54.24
2018-09-12T08:14:12.618Z,54.24
2018-09-12T08:15:12.609Z,53.27
2018-09-12T08:16:12.601Z,52.31
2018-09-12T08:17:12.602Z,51.73
2018-09-12T08:18:12.592Z,51.73
2018-09-12T08:19:12.583Z,51.63
2018-09-12T08:20:12.574Z,52.21
2018-09-12T08:21:12.570Z,52.33
2018-09-12T08:22:12.558Z,53.30
2018-09-12T08:23:12.554Z,53.97
2018-09-12T08:24:12.550Z,53.88
2018-09-12T08:25:12.540Z,53.11
2018-09-12T08:26:12.603Z,52.43
2018-09-12T08:27:12.531Z,52.43
2018-09-12T08:28:12.519Z,52.26
2018-09-12T08:29:12.519Z,50.33
2018-09-12T08:30:12.506Z,49.95
2018-09-12T08:31:12.504Z,51.29
2018-09-12T08:32:12.498Z,52.07
2018-09-12T08:33:12.504Z,51.01
2018-09-12T08:34:12.484Z,51.39
2018-09-12T08:35:12.476Z,52.84
2018-09-12T08:36:12.476Z,52.26
2018-09-12T08:37:12.462Z,51.49
2018-09-12T08:38:12.457Z,51.49
2018-09-12T08:39:12.451Z,51.03
2018-09-12T08:40:12.446Z,51.10
2018-09-12T08:41:12.438Z,52.29
2018-09-12T08:42:12.445Z,52.00
2018-09-12T08:43:12.431Z,52.67
2018-09-12T08:44:12.420Z,52.48
2018-09-12T08:45:12.416Z,52.29
2018-09-12T08:46:12.410Z,49.29
2018-09-12T08:47:12.405Z,50.93
2018-09-12T08:48:12.395Z,51.23
2018-09-12T08:49:12.394Z,51.42
2018-09-12T08:50:12.387Z,52.00
2018-09-12T08:51:12.376Z,52.51
2018-09-12T08:52:12.374Z,50.96
2018-09-12T08:53:12.367Z,48.83
2018-09-12T08:54:12.365Z,48.54
2018-09-12T08:55:12.351Z,47.09
2018-09-12T08:56:12.349Z,46.20
2018-09-12T08:57:12.346Z,45.52
2018-09-12T08:58:12.336Z,45.52
2018-09-12T08:59:12.327Z,45.62
2018-09-12T09:00:12.329Z,45.72
2018-09-12T09:01:12.370Z,47.36
2018-09-12T09:02:12.314Z,47.36
2018-09-12T09:03:12.306Z,47.36
2018-09-12T09:04:12.377Z,43.98
2018-09-12T09:05:12.299Z,43.88
2018-09-12T09:06:12.290Z,45.33
2018-09-12T09:07:12.285Z,47.45
2018-09-12T09:08:12.277Z,48.71
2018-09-12T09:09:12.276Z,50.35
2018-09-12T09:10:12.263Z,50.16
2018-09-12T09:11:12.268Z,48.83
2018-09-12T09:12:12.256Z,46.51
2018-09-12T09:13:12.250Z,47.19
2018-09-12T09:14:12.245Z,46.10
2018-09-12T09:15:12.238Z,44.84
2018-09-12T09:16:12.234Z,42.72
2018-09-12T09:17:12.232Z,44.17
2018-09-12T09:18:12.221Z,42.33
2018-09-12T09:19:12.221Z,41.94
2018-09-12T09:20:12.211Z,44.09
2018-09-12T09:21:12.205Z,45.45
2018-09-12T09:22:12.194Z,43.61
2018-09-12T09:23:12.190Z,44.38
2018-09-12T09:24:12.191Z,46.61
2018-09-12T09:25:12.183Z,47.77
2018-09-12T09:26:12.173Z,46.22
2018-09-12T09:27:12.163Z,46.03
2018-09-12T09:28:12.164Z,44.98
2018-09-12T09:29:12.167Z,42.66
2018-09-12T09:30:12.149Z,41.99
2018-09-12T09:31:12.151Z,42.37
2018-09-12T09:32:12.149Z,41.89
2018-09-12T09:33:12.135Z,42.28
2018-09-12T09:34:12.127Z,42.10
2018-09-12T09:35:12.140Z,41.82
2018-09-12T09:36:12.117Z,41.91
2018-09-12T09:37:12.114Z,42.49
2018-09-12T09:38:12.106Z,42.10
2018-09-12T09:39:12.101Z,38.25
2018-09-12T09:40:12.093Z,38.83
2018-09-12T09:41:12.094Z,40.77
2018-09-12T09:42:12.091Z,35.83
2018-09-12T09:43:12.085Z,34.86
2018-09-12T09:44:12.075Z,36.80
2018-09-12T09:45:12.071Z,37.48
2018-09-12T09:46:12.064Z,35.93
2018-09-12T09:47:12.061Z,35.25
2018-09-12T09:48:12.164Z,37.11
2018-09-12T09:49:12.045Z,35.15
2018-09-12T09:50:12.044Z,35.73
2018-09-12T09:51:12.036Z,38.15
2018-09-12T09:52:12.034Z,40.38
2018-09-12T09:53:12.030Z,42.03
2018-09-12T09:54:12.025Z,42.13
2018-09-12T09:55:12.034Z,39.14
2018-09-12T09:56:12.012Z,37.88
2018-09-12T09:57:12.008Z,38.07
2018-09-12T09:58:12.001Z,38.07
2018-09-12T09:59:11.995Z,37.49
2018-09-12T10:00:12.000Z,38.17
2018-09-12T10:01:11.989Z,38.46
2018-09-12T10:02:11.987Z,38.56
2018-09-12T10:03:11.978Z,38.27
2018-09-12T10:04:11.978Z,37.79
2018-09-12T10:05:11.967Z,38.95
2018-09-12T10:06:11.963Z,40.11
2018-09-12T10:07:11.955Z,40.79
2018-09-12T10:08:11.952Z,39.94
2018-09-12T10:09:11.946Z,40.61
2018-09-12T10:10:11.944Z,39.26
2018-09-12T10:11:11.942Z,38.39
2018-09-12T10:12:11.936Z,38.39
2018-09-12T10:13:11.926Z,38.29
2018-09-12T10:14:11.921Z,37.23
2018-09-12T10:15:11.917Z,36.64
2018-09-12T10:16:11.917Z,36.74
2018-09-12T10:17:11.911Z,36.44
2018-09-12T10:18:11.906Z,36.83
2018-09-12T10:19:11.904Z,37.51
2018-09-12T10:20:11.893Z,37.81
2018-09-12T10:21:11.887Z,37.71
2018-09-12T10:22:11.884Z,38.31
2018-09-12T10:23:11.886Z,39.08
2018-09-12T10:24:11.904Z,37.51
2018-09-12T10:25:11.870Z,37.61
2018-09-12T10:26:11.866Z,38.48
2018-09-12T10:27:11.862Z,40.05
2018-09-12T10:28:11.858Z,40.83
2018-09-12T10:29:11.852Z,38.40
2018-09-12T10:30:11.847Z,38.50
2018-09-12T10:31:11.843Z,39.95
2018-09-12T10:32:11.839Z,39.98
2018-09-12T10:33:11.845Z,38.79
2018-09-12T10:34:11.832Z,38.70
2018-09-12T10:35:11.834Z,42.29
2018-09-12T10:36:11.822Z,39.29
2018-09-12T10:37:11.817Z,40.08
2018-09-12T10:38:11.813Z,39.41
2018-09-12T10:39:11.812Z,40.58
2018-09-12T10:40:11.804Z,40.87
2018-09-12T10:41:11.797Z,38.93
2018-09-12T10:42:11.791Z,38.06
2018-09-12T10:43:11.793Z,40.77
2018-09-12T10:44:11.787Z,42.23
2018-09-12T10:45:11.781Z,39.22
2018-09-12T10:46:11.781Z,37.47
2018-09-12T10:47:11.776Z,37.47
2018-09-12T10:48:11.776Z,38.15
2018-09-12T10:49:11.775Z,37.96
2018-09-12T10:50:11.767Z,40.00
2018-09-12T10:51:11.758Z,39.22
2018-09-12T10:52:11.757Z,38.54
2018-09-12T10:53:11.752Z,38.83
2018-09-12T10:54:11.745Z,39.70
2018-09-12T10:55:11.742Z,38.06
2018-09-12T10:56:11.733Z,38.06
2018-09-12T10:57:11.734Z,40.58
2018-09-12T10:58:11.731Z,38.44
2018-09-12T10:59:11.765Z,38.95
2018-09-12T11:00:11.730Z,39.92
2018-09-12T11:01:11.721Z,38.07
2018-09-12T11:02:11.715Z,37.78
2018-09-12T11:03:11.716Z,39.53
2018-09-12T11:04:11.735Z,38.75
2018-09-12T11:05:11.702Z,38.75
2018-09-12T11:06:11.700Z,39.14
2018-09-12T11:07:11.693Z,39.14
2018-09-12T11:08:11.690Z,40.89
2018-09-12T11:09:11.688Z,39.34
2018-09-12T11:10:11.688Z,38.37
2018-09-12T11:11:11.681Z,38.07
2018-09-12T11:12:11.682Z,37.88
2018-09-12T11:13:11.671Z,38.95
2018-09-12T11:14:11.673Z,39.82
2018-09-12T11:15:11.729Z,38.56
2018-09-12T11:16:11.678Z,38.37
2018-09-12T11:17:11.662Z,38.56
2018-09-12T11:18:11.657Z,38.56
2018-09-12T11:19:11.649Z,39.53
2018-09-12T11:20:11.645Z,38.75
2018-09-12T11:21:11.651Z,38.85
2018-09-12T11:22:11.639Z,39.04
2018-09-12T11:23:11.635Z,38.65
2018-09-12T11:24:11.631Z,39.14
2018-09-12T11:25:11.629Z,40.79
2018-09-12T11:26:11.626Z,39.43
2018-09-12T11:27:11.624Z,39.92
2018-09-12T11:28:11.620Z,39.92
2018-09-12T11:29:11.638Z,40.21
2018-09-12T11:30:11.618Z,39.53
2018-09-12T11:31:11.607Z,39.72
2018-09-12T11:32:11.607Z,39.04
2018-09-12T11:33:11.600Z,39.04
2018-09-12T11:34:11.635Z,38.85
2018-09-12T11:35:11.593Z,38.65
2018-09-12T11:36:11.593Z,38.85
2018-09-12T11:37:11.591Z,38.95
2018-09-12T11:38:11.583Z,38.95
2018-09-12T11:39:11.582Z,39.14
2018-09-12T11:40:11.621Z,39.53
2018-09-12T11:41:11.573Z,38.95
2018-09-12T11:42:11.572Z,39.14
2018-09-12T11:43:11.570Z,38.85
2018-09-12T11:44:11.562Z,39.53
2018-09-12T11:45:11.561Z,40.69
2018-09-12T11:46:11.553Z,41.38
2018-09-12T11:47:11.555Z,41.01
2018-09-12T11:48:11.551Z,39.94
2018-09-12T11:49:11.593Z,39.16
2018-09-12T11:50:11.542Z,38.57
2018-09-12T11:51:11.535Z,38.96
2018-09-12T11:52:11.532Z,38.48
2018-09-12T11:53:11.529Z,37.90
2018-09-12T11:54:11.527Z,37.32
2018-09-12T11:55:11.526Z,36.83
2018-09-12T11:56:11.524Z,37.32
2018-09-12T11:57:11.516Z,37.90
2018-09-12T11:58:11.512Z,38.67
2018-09-12T11:59:11.516Z,38.39
2018-09-12T12:00:11.507Z,37.22
2018-09-12T12:01:11.508Z,38.48
2018-09-12T12:02:11.578Z,39.47
2018-09-12T12:03:11.500Z,38.01
2018-09-12T12:04:11.496Z,37.72
2018-09-12T12:05:11.492Z,37.04
2018-09-12T12:06:11.564Z,37.14
2018-09-12T12:07:11.481Z,37.52
2018-09-12T12:08:11.477Z,37.62
2018-09-12T12:09:11.475Z,37.62
2018-09-12T12:10:11.472Z,38.79
2018-09-12T12:11:11.476Z,38.11
2018-09-12T12:12:11.468Z,38.01
2018-09-12T12:13:11.465Z,39.76
2018-09-12T12:14:11.458Z,38.23
2018-09-12T12:15:11.460Z,38.03
2018-09-12T12:16:11.455Z,37.26
2018-09-12T12:17:11.451Z,37.54
2018-09-12T12:18:11.445Z,37.54
2018-09-12T12:19:11.445Z,36.38
2018-09-12T12:20:11.434Z,38.03
2018-09-12T12:21:11.440Z,37.84
2018-09-12T12:22:11.433Z,36.67
2018-09-12T12:23:11.500Z,37.45
2018-09-12T12:24:11.435Z,37.16
2018-09-12T12:25:11.431Z,38.13
2018-09-12T12:26:11.424Z,37.45
2018-09-12T12:27:11.417Z,38.13
2018-09-12T12:28:11.427Z,38.03
2018-09-12T12:29:11.412Z,36.67
2018-09-12T12:30:11.410Z,37.84
2018-09-12T12:31:11.405Z,37.74
2018-09-12T12:32:11.411Z,37.16
2018-09-12T12:33:11.401Z,36.87
2018-09-12T12:34:11.398Z,36.08
2018-09-12T12:35:11.394Z,36.18
2018-09-12T12:36:11.394Z,35.99
2018-09-12T12:37:11.388Z,36.96
2018-09-12T12:38:11.389Z,38.62
2018-09-12T12:39:11.393Z,36.08
2018-09-12T12:40:11.377Z,36.69
2018-09-12T12:41:11.430Z,36.57
2018-09-12T12:42:11.368Z,36.49
2018-09-12T12:43:11.369Z,35.60
2018-09-12T12:44:11.374Z,36.77
2018-09-12T12:45:11.370Z,36.28
2018-09-12T12:46:11.366Z,36.67
2018-09-12T12:47:11.363Z,36.57
2018-09-12T12:48:11.357Z,36.87
2018-09-12T12:49:11.356Z,37.18
2018-09-12T12:50:11.352Z,37.18
2018-09-12T12:51:11.344Z,37.56
2018-09-12T12:52:11.345Z,36.88